sensor_id;sensor_type;location;lat;lon;timestamp;P1;durP1;ratioP1;P2;durP2;ratioP2
66179;SDS011;52986;44.028;20.466;2023-11-21T00:01:51;112.75;;;49.53;;
66179;SDS011;52986;44.028;20.466;2023-11-21T00:04:17;102.85;;;46.45;;
66179;SDS011;52986;44.028;20.466;2023-11-21T00:06:42;99.32;;;45.28;;
66179;SDS011;52986;44.028;20.466;2023-11-21T00:09:07;104.25;;;45.33;;
66179;SDS011;52986;44.028;20.466;2023-11-21T00:11:33;106.65;;;47.53;;
66179;SDS011;52986;44.028;20.466;2023-11-21T00:13:59;105.90;;;47.35;;
66179;SDS011;52986;44.028;20.466;2023-11-21T00:16:24;101.75;;;45.83;;
66179;SDS011;52986;44.028;20.466;2023-11-21T00:18:50;103.55;;;44.83;;
66179;SDS011;52986;44.028;20.466;2023-11-21T00:21:16;93.03;;;41.75;;
66179;SDS011;52986;44.028;20.466;2023-11-21T00:23:41;101.05;;;43.70;;
66179;SDS011;52986;44.028;20.466;2023-11-21T00:26:07;92.80;;;41.78;;
66179;SDS011;52986;44.028;20.466;2023-11-21T00:28:33;95.78;;;42.30;;
66179;SDS011;52986;44.028;20.466;2023-11-21T00:30:58;96.45;;;43.05;;
66179;SDS011;52986;44.028;20.466;2023-11-21T00:33:23;100.13;;;42.00;;
66179;SDS011;52986;44.028;20.466;2023-11-21T00:35:50;92.35;;;41.90;;
66179;SDS011;52986;44.028;20.466;2023-11-21T00:38:15;89.57;;;40.22;;
66179;SDS011;52986;44.028;20.466;2023-11-21T00:40:44;97.75;;;42.97;;
66179;SDS011;52986;44.028;20.466;2023-11-21T00:43:10;91.80;;;41.13;;
66179;SDS011;52986;44.028;20.466;2023-11-21T00:45:35;106.43;;;42.85;;
66179;SDS011;52986;44.028;20.466;2023-11-21T00:48:01;99.68;;;43.22;;
66179;SDS011;52986;44.028;20.466;2023-11-21T00:50:30;91.65;;;40.55;;
66179;SDS011;52986;44.028;20.466;2023-11-21T00:52:55;89.45;;;42.50;;
66179;SDS011;52986;44.028;20.466;2023-11-21T00:55:21;93.05;;;43.13;;
66179;SDS011;52986;44.028;20.466;2023-11-21T00:57:46;86.72;;;39.72;;
66179;SDS011;52986;44.028;20.466;2023-11-21T01:00:12;86.55;;;39.78;;
66179;SDS011;52986;44.028;20.466;2023-11-21T01:02:45;91.68;;;41.90;;
66179;SDS011;52986;44.028;20.466;2023-11-21T01:05:12;86.15;;;40.65;;
66179;SDS011;52986;44.028;20.466;2023-11-21T01:07:37;98.72;;;43.88;;
66179;SDS011;52986;44.028;20.466;2023-11-21T01:10:03;94.55;;;44.40;;
66179;SDS011;52986;44.028;20.466;2023-11-21T01:12:31;96.30;;;44.72;;
66179;SDS011;52986;44.028;20.466;2023-11-21T01:14:56;104.07;;;47.33;;
66179;SDS011;52986;44.028;20.466;2023-11-21T01:17:25;106.38;;;47.88;;
66179;SDS011;52986;44.028;20.466;2023-11-21T01:19:50;102.82;;;47.53;;
66179;SDS011;52986;44.028;20.466;2023-11-21T01:22:16;103.90;;;47.03;;
66179;SDS011;52986;44.028;20.466;2023-11-21T01:24:41;97.85;;;45.28;;
66179;SDS011;52986;44.028;20.466;2023-11-21T01:27:06;98.03;;;44.67;;
66179;SDS011;52986;44.028;20.466;2023-11-21T01:29:32;102.72;;;47.28;;
66179;SDS011;52986;44.028;20.466;2023-11-21T01:31:57;98.22;;;45.20;;
66179;SDS011;52986;44.028;20.466;2023-11-21T01:34:23;95.30;;;43.88;;
66179;SDS011;52986;44.028;20.466;2023-11-21T01:36:48;95.47;;;42.53;;
66179;SDS011;52986;44.028;20.466;2023-11-21T01:39:14;93.82;;;42.28;;
66179;SDS011;52986;44.028;20.466;2023-11-21T01:41:41;89.22;;;40.60;;
66179;SDS011;52986;44.028;20.466;2023-11-21T01:44:09;91.28;;;41.05;;
66179;SDS011;52986;44.028;20.466;2023-11-21T01:46:34;94.18;;;40.97;;
66179;SDS011;52986;44.028;20.466;2023-11-21T01:49:00;92.75;;;40.13;;
66179;SDS011;52986;44.028;20.466;2023-11-21T01:51:26;85.18;;;39.33;;
66179;SDS011;52986;44.028;20.466;2023-11-21T01:53:51;92.60;;;39.70;;
66179;SDS011;52986;44.028;20.466;2023-11-21T01:56:17;91.40;;;42.33;;
66179;SDS011;52986;44.028;20.466;2023-11-21T01:58:43;88.97;;;40.03;;
66179;SDS011;52986;44.028;20.466;2023-11-21T02:01:11;96.47;;;44.22;;
66179;SDS011;52986;44.028;20.466;2023-11-21T02:03:37;100.38;;;46.38;;
66179;SDS011;52986;44.028;20.466;2023-11-21T02:06:02;97.72;;;44.97;;
66179;SDS011;52986;44.028;20.466;2023-11-21T02:08:28;94.57;;;43.65;;
66179;SDS011;52986;44.028;20.466;2023-11-21T02:10:53;95.30;;;43.63;;
66179;SDS011;52986;44.028;20.466;2023-11-21T02:13:18;88.50;;;41.33;;
66179;SDS011;52986;44.028;20.466;2023-11-21T02:15:44;87.72;;;41.33;;
66179;SDS011;52986;44.028;20.466;2023-11-21T02:18:09;90.50;;;40.88;;
66179;SDS011;52986;44.028;20.466;2023-11-21T02:20:36;86.00;;;40.35;;
66179;SDS011;52986;44.028;20.466;2023-11-21T02:23:03;84.53;;;39.92;;
66179;SDS011;52986;44.028;20.466;2023-11-21T02:25:31;95.28;;;43.75;;
66179;SDS011;52986;44.028;20.466;2023-11-21T02:27:59;93.60;;;43.83;;
66179;SDS011;52986;44.028;20.466;2023-11-21T02:30:26;85.18;;;40.92;;
66179;SDS011;52986;44.028;20.466;2023-11-21T02:32:53;86.13;;;39.78;;
66179;SDS011;52986;44.028;20.466;2023-11-21T02:35:19;85.95;;;39.90;;
66179;SDS011;52986;44.028;20.466;2023-11-21T02:37:47;77.40;;;36.33;;
66179;SDS011;52986;44.028;20.466;2023-11-21T02:40:13;66.55;;;31.48;;
66179;SDS011;52986;44.028;20.466;2023-11-21T02:42:42;61.65;;;30.13;;
66179;SDS011;52986;44.028;20.466;2023-11-21T02:45:08;61.80;;;30.42;;
66179;SDS011;52986;44.028;20.466;2023-11-21T02:47:37;65.35;;;30.10;;
66179;SDS011;52986;44.028;20.466;2023-11-21T02:50:03;66.65;;;31.73;;
66179;SDS011;52986;44.028;20.466;2023-11-21T02:52:29;69.60;;;33.15;;
66179;SDS011;52986;44.028;20.466;2023-11-21T02:54:54;67.43;;;32.28;;
66179;SDS011;52986;44.028;20.466;2023-11-21T02:57:20;63.75;;;31.38;;
66179;SDS011;52986;44.028;20.466;2023-11-21T02:59:45;67.97;;;30.55;;
66179;SDS011;52986;44.028;20.466;2023-11-21T03:02:11;71.70;;;31.98;;
66179;SDS011;52986;44.028;20.466;2023-11-21T03:04:36;71.05;;;32.22;;
66179;SDS011;52986;44.028;20.466;2023-11-21T03:07:01;71.15;;;32.17;;
66179;SDS011;52986;44.028;20.466;2023-11-21T03:09:27;69.50;;;30.95;;
66179;SDS011;52986;44.028;20.466;2023-11-21T03:11:53;71.15;;;32.58;;
66179;SDS011;52986;44.028;20.466;2023-11-21T03:14:18;71.20;;;31.65;;
66179;SDS011;52986;44.028;20.466;2023-11-21T03:16:44;69.18;;;31.15;;
66179;SDS011;52986;44.028;20.466;2023-11-21T03:19:10;65.68;;;30.13;;
66179;SDS011;52986;44.028;20.466;2023-11-21T03:21:36;64.05;;;30.40;;
66179;SDS011;52986;44.028;20.466;2023-11-21T03:24:01;68.18;;;31.63;;
66179;SDS011;52986;44.028;20.466;2023-11-21T03:26:27;69.68;;;31.08;;
66179;SDS011;52986;44.028;20.466;2023-11-21T03:28:53;68.55;;;32.08;;
66179;SDS011;52986;44.028;20.466;2023-11-21T03:31:18;74.07;;;33.50;;
66179;SDS011;52986;44.028;20.466;2023-11-21T03:33:44;71.70;;;33.53;;
66179;SDS011;52986;44.028;20.466;2023-11-21T03:36:10;72.38;;;33.47;;
66179;SDS011;52986;44.028;20.466;2023-11-21T03:38:36;77.85;;;36.97;;
66179;SDS011;52986;44.028;20.466;2023-11-21T03:41:02;80.72;;;38.25;;
66179;SDS011;52986;44.028;20.466;2023-11-21T03:43:28;82.68;;;38.75;;
66179;SDS011;52986;44.028;20.466;2023-11-21T03:45:54;74.13;;;35.35;;
66179;SDS011;52986;44.028;20.466;2023-11-21T03:48:19;76.78;;;36.17;;
66179;SDS011;52986;44.028;20.466;2023-11-21T03:50:45;73.75;;;35.65;;
66179;SDS011;52986;44.028;20.466;2023-11-21T03:53:12;78.47;;;34.40;;
66179;SDS011;52986;44.028;20.466;2023-11-21T03:55:38;76.88;;;35.33;;
66179;SDS011;52986;44.028;20.466;2023-11-21T03:58:03;73.40;;;34.15;;
66179;SDS011;52986;44.028;20.466;2023-11-21T04:00:28;72.32;;;34.75;;
66179;SDS011;52986;44.028;20.466;2023-11-21T04:02:54;70.43;;;33.22;;
66179;SDS011;52986;44.028;20.466;2023-11-21T04:05:20;74.00;;;33.88;;
66179;SDS011;52986;44.028;20.466;2023-11-21T04:07:47;69.70;;;31.92;;
66179;SDS011;52986;44.028;20.466;2023-11-21T04:10:14;69.30;;;31.83;;
66179;SDS011;52986;44.028;20.466;2023-11-21T04:12:40;66.15;;;31.20;;
66179;SDS011;52986;44.028;20.466;2023-11-21T04:15:06;65.13;;;31.98;;
66179;SDS011;52986;44.028;20.466;2023-11-21T04:17:33;78.65;;;36.88;;
66179;SDS011;52986;44.028;20.466;2023-11-21T04:19:59;86.28;;;40.90;;
66179;SDS011;52986;44.028;20.466;2023-11-21T04:22:25;83.75;;;39.88;;
66179;SDS011;52986;44.028;20.466;2023-11-21T04:24:50;84.15;;;39.60;;
66179;SDS011;52986;44.028;20.466;2023-11-21T04:27:16;78.20;;;38.10;;
66179;SDS011;52986;44.028;20.466;2023-11-21T04:29:43;82.47;;;39.45;;
66179;SDS011;52986;44.028;20.466;2023-11-21T04:32:09;79.03;;;39.70;;
66179;SDS011;52986;44.028;20.466;2023-11-21T04:34:34;77.00;;;37.45;;
66179;SDS011;52986;44.028;20.466;2023-11-21T04:37:00;79.72;;;38.20;;
66179;SDS011;52986;44.028;20.466;2023-11-21T04:39:26;71.13;;;35.20;;
66179;SDS011;52986;44.028;20.466;2023-11-21T04:41:51;70.47;;;34.38;;
66179;SDS011;52986;44.028;20.466;2023-11-21T04:44:17;77.13;;;35.05;;
66179;SDS011;52986;44.028;20.466;2023-11-21T04:46:42;71.18;;;34.17;;
66179;SDS011;52986;44.028;20.466;2023-11-21T04:49:08;71.78;;;33.67;;
66179;SDS011;52986;44.028;20.466;2023-11-21T04:51:33;77.05;;;36.00;;
66179;SDS011;52986;44.028;20.466;2023-11-21T04:53:59;71.72;;;34.15;;
66179;SDS011;52986;44.028;20.466;2023-11-21T04:56:24;70.72;;;33.30;;
66179;SDS011;52986;44.028;20.466;2023-11-21T04:58:50;77.75;;;36.63;;
66179;SDS011;52986;44.028;20.466;2023-11-21T05:01:15;77.75;;;35.47;;
66179;SDS011;52986;44.028;20.466;2023-11-21T05:03:41;80.45;;;36.72;;
66179;SDS011;52986;44.028;20.466;2023-11-21T05:06:09;87.50;;;39.97;;
66179;SDS011;52986;44.028;20.466;2023-11-21T05:08:34;102.05;;;45.13;;
66179;SDS011;52986;44.028;20.466;2023-11-21T05:11:02;104.72;;;47.08;;
66179;SDS011;52986;44.028;20.466;2023-11-21T05:13:27;106.95;;;47.45;;
66179;SDS011;52986;44.028;20.466;2023-11-21T05:15:56;77.70;;;35.75;;
66179;SDS011;52986;44.028;20.466;2023-11-21T05:18:22;71.30;;;33.97;;
66179;SDS011;52986;44.028;20.466;2023-11-21T05:20:47;71.38;;;33.03;;
66179;SDS011;52986;44.028;20.466;2023-11-21T05:23:13;70.88;;;33.88;;
66179;SDS011;52986;44.028;20.466;2023-11-21T05:25:38;70.38;;;33.88;;
66179;SDS011;52986;44.028;20.466;2023-11-21T05:28:04;84.55;;;38.83;;
66179;SDS011;52986;44.028;20.466;2023-11-21T05:30:29;85.68;;;40.92;;
66179;SDS011;52986;44.028;20.466;2023-11-21T05:32:54;92.13;;;43.47;;
66179;SDS011;52986;44.028;20.466;2023-11-21T05:35:20;97.80;;;46.90;;
66179;SDS011;52986;44.028;20.466;2023-11-21T05:37:46;92.20;;;44.53;;
66179;SDS011;52986;44.028;20.466;2023-11-21T05:40:11;95.00;;;43.70;;
66179;SDS011;52986;44.028;20.466;2023-11-21T05:42:38;90.63;;;41.05;;
66179;SDS011;52986;44.028;20.466;2023-11-21T05:45:04;109.10;;;47.53;;
66179;SDS011;52986;44.028;20.466;2023-11-21T05:47:43;109.32;;;48.40;;
66179;SDS011;52986;44.028;20.466;2023-11-21T05:50:11;98.18;;;45.22;;
66179;SDS011;52986;44.028;20.466;2023-11-21T05:52:43;106.65;;;49.85;;
66179;SDS011;52986;44.028;20.466;2023-11-21T05:55:10;107.85;;;51.78;;
66179;SDS011;52986;44.028;20.466;2023-11-21T05:57:36;96.15;;;46.33;;
66179;SDS011;52986;44.028;20.466;2023-11-21T06:00:04;90.00;;;42.83;;
66179;SDS011;52986;44.028;20.466;2023-11-21T06:02:39;86.50;;;40.47;;
66179;SDS011;52986;44.028;20.466;2023-11-21T06:05:08;88.05;;;42.45;;
66179;SDS011;52986;44.028;20.466;2023-11-21T06:07:34;97.10;;;43.50;;
66179;SDS011;52986;44.028;20.466;2023-11-21T06:10:01;88.10;;;42.15;;
66179;SDS011;52986;44.028;20.466;2023-11-21T06:12:28;99.82;;;43.88;;
66179;SDS011;52986;44.028;20.466;2023-11-21T06:14:53;94.70;;;42.25;;
66179;SDS011;52986;44.028;20.466;2023-11-21T06:17:19;90.38;;;41.40;;
66179;SDS011;52986;44.028;20.466;2023-11-21T06:19:44;89.57;;;41.80;;
66179;SDS011;52986;44.028;20.466;2023-11-21T06:22:11;86.05;;;39.80;;
66179;SDS011;52986;44.028;20.466;2023-11-21T06:24:36;92.07;;;41.80;;
66179;SDS011;52986;44.028;20.466;2023-11-21T06:27:03;106.00;;;47.15;;
66179;SDS011;52986;44.028;20.466;2023-11-21T06:29:30;90.63;;;44.42;;
66179;SDS011;52986;44.028;20.466;2023-11-21T06:31:55;98.25;;;44.05;;
66179;SDS011;52986;44.028;20.466;2023-11-21T06:34:20;90.55;;;43.97;;
66179;SDS011;52986;44.028;20.466;2023-11-21T06:36:46;94.63;;;44.53;;
66179;SDS011;52986;44.028;20.466;2023-11-21T06:39:12;119.28;;;55.83;;
66179;SDS011;52986;44.028;20.466;2023-11-21T06:41:40;122.57;;;58.45;;
66179;SDS011;52986;44.028;20.466;2023-11-21T06:44:05;122.25;;;57.97;;
66179;SDS011;52986;44.028;20.466;2023-11-21T06:46:31;108.47;;;51.67;;
66179;SDS011;52986;44.028;20.466;2023-11-21T06:48:56;108.90;;;50.10;;
66179;SDS011;52986;44.028;20.466;2023-11-21T06:51:21;109.80;;;53.03;;
66179;SDS011;52986;44.028;20.466;2023-11-21T06:53:47;107.05;;;51.65;;
66179;SDS011;52986;44.028;20.466;2023-11-21T06:56:18;109.03;;;50.70;;
66179;SDS011;52986;44.028;20.466;2023-11-21T06:58:45;113.72;;;54.53;;
66179;SDS011;52986;44.028;20.466;2023-11-21T07:01:11;113.15;;;53.83;;
66179;SDS011;52986;44.028;20.466;2023-11-21T07:03:38;107.43;;;51.45;;
66179;SDS011;52986;44.028;20.466;2023-11-21T07:06:03;124.40;;;62.53;;
66179;SDS011;52986;44.028;20.466;2023-11-21T07:08:29;162.48;;;75.40;;
66179;SDS011;52986;44.028;20.466;2023-11-21T07:10:55;161.40;;;73.47;;
66179;SDS011;52986;44.028;20.466;2023-11-21T07:13:20;128.70;;;62.10;;
66179;SDS011;52986;44.028;20.466;2023-11-21T07:15:46;123.38;;;58.33;;
66179;SDS011;52986;44.028;20.466;2023-11-21T07:18:13;115.50;;;53.95;;
66179;SDS011;52986;44.028;20.466;2023-11-21T07:20:38;117.03;;;57.65;;
66179;SDS011;52986;44.028;20.466;2023-11-21T07:23:04;116.18;;;57.63;;
66179;SDS011;52986;44.028;20.466;2023-11-21T07:25:29;122.47;;;61.85;;
66179;SDS011;52986;44.028;20.466;2023-11-21T07:27:54;119.47;;;59.17;;
66179;SDS011;52986;44.028;20.466;2023-11-21T07:30:20;111.38;;;53.53;;
66179;SDS011;52986;44.028;20.466;2023-11-21T07:32:47;107.07;;;54.45;;
66179;SDS011;52986;44.028;20.466;2023-11-21T07:35:13;106.85;;;53.28;;
66179;SDS011;52986;44.028;20.466;2023-11-21T07:37:38;107.10;;;53.85;;
66179;SDS011;52986;44.028;20.466;2023-11-21T07:40:04;115.55;;;57.35;;
66179;SDS011;52986;44.028;20.466;2023-11-21T07:42:30;114.28;;;52.95;;
66179;SDS011;52986;44.028;20.466;2023-11-21T07:44:56;107.75;;;52.00;;
66179;SDS011;52986;44.028;20.466;2023-11-21T07:47:21;101.30;;;50.95;;
66179;SDS011;52986;44.028;20.466;2023-11-21T07:49:47;105.45;;;49.30;;
66179;SDS011;52986;44.028;20.466;2023-11-21T07:52:13;96.13;;;48.97;;
66179;SDS011;52986;44.028;20.466;2023-11-21T07:54:41;99.78;;;49.58;;
66179;SDS011;52986;44.028;20.466;2023-11-21T07:57:07;103.97;;;52.22;;
66179;SDS011;52986;44.028;20.466;2023-11-21T07:59:32;107.68;;;54.25;;
66179;SDS011;52986;44.028;20.466;2023-11-21T08:01:58;106.43;;;53.60;;
66179;SDS011;52986;44.028;20.466;2023-11-21T08:04:23;109.15;;;53.78;;
66179;SDS011;52986;44.028;20.466;2023-11-21T08:06:48;107.50;;;54.20;;
66179;SDS011;52986;44.028;20.466;2023-11-21T08:09:14;112.28;;;54.45;;
66179;SDS011;52986;44.028;20.466;2023-11-21T08:11:40;117.60;;;55.92;;
66179;SDS011;52986;44.028;20.466;2023-11-21T08:14:06;115.20;;;55.40;;
66179;SDS011;52986;44.028;20.466;2023-11-21T08:16:31;108.28;;;53.30;;
66179;SDS011;52986;44.028;20.466;2023-11-21T08:18:57;116.18;;;57.10;;
66179;SDS011;52986;44.028;20.466;2023-11-21T08:21:22;126.57;;;62.22;;
66179;SDS011;52986;44.028;20.466;2023-11-21T08:23:52;132.52;;;65.05;;
66179;SDS011;52986;44.028;20.466;2023-11-21T08:26:23;120.95;;;60.97;;
66179;SDS011;52986;44.028;20.466;2023-11-21T08:28:48;125.43;;;59.90;;
66179;SDS011;52986;44.028;20.466;2023-11-21T08:31:14;120.35;;;57.80;;
66179;SDS011;52986;44.028;20.466;2023-11-21T08:33:40;114.40;;;56.33;;
66179;SDS011;52986;44.028;20.466;2023-11-21T08:36:06;106.65;;;52.20;;
66179;SDS011;52986;44.028;20.466;2023-11-21T08:38:33;360.38;;;162.30;;
66179;SDS011;52986;44.028;20.466;2023-11-21T08:41:02;99.47;;;50.28;;
66179;SDS011;52986;44.028;20.466;2023-11-21T08:43:33;87.30;;;43.78;;
66179;SDS011;52986;44.028;20.466;2023-11-21T08:45:59;95.10;;;47.10;;
66179;SDS011;52986;44.028;20.466;2023-11-21T08:48:25;86.15;;;42.17;;
66179;SDS011;52986;44.028;20.466;2023-11-21T08:50:50;80.40;;;40.60;;
66179;SDS011;52986;44.028;20.466;2023-11-21T08:53:16;82.03;;;41.75;;
66179;SDS011;52986;44.028;20.466;2023-11-21T08:55:41;79.50;;;41.58;;
66179;SDS011;52986;44.028;20.466;2023-11-21T08:58:09;82.53;;;41.33;;
66179;SDS011;52986;44.028;20.466;2023-11-21T09:00:34;83.30;;;42.42;;
66179;SDS011;52986;44.028;20.466;2023-11-21T09:03:00;76.57;;;39.15;;
66179;SDS011;52986;44.028;20.466;2023-11-21T09:05:27;73.05;;;37.85;;
66179;SDS011;52986;44.028;20.466;2023-11-21T09:07:53;79.63;;;39.85;;
66179;SDS011;52986;44.028;20.466;2023-11-21T09:10:18;73.60;;;37.45;;
66179;SDS011;52986;44.028;20.466;2023-11-21T09:12:44;77.97;;;38.95;;
66179;SDS011;52986;44.028;20.466;2023-11-21T09:15:09;74.53;;;36.83;;
66179;SDS011;52986;44.028;20.466;2023-11-21T09:17:36;69.47;;;35.55;;
66179;SDS011;52986;44.028;20.466;2023-11-21T09:20:01;71.35;;;37.80;;
66179;SDS011;52986;44.028;20.466;2023-11-21T09:22:30;69.15;;;36.30;;
66179;SDS011;52986;44.028;20.466;2023-11-21T09:24:56;83.68;;;41.90;;
66179;SDS011;52986;44.028;20.466;2023-11-21T09:27:22;82.07;;;42.35;;
66179;SDS011;52986;44.028;20.466;2023-11-21T09:29:48;74.30;;;37.17;;
66179;SDS011;52986;44.028;20.466;2023-11-21T09:32:14;75.90;;;38.58;;
66179;SDS011;52986;44.028;20.466;2023-11-21T09:34:41;91.50;;;45.55;;
66179;SDS011;52986;44.028;20.466;2023-11-21T09:37:06;89.93;;;45.22;;
66179;SDS011;52986;44.028;20.466;2023-11-21T09:39:33;93.15;;;46.00;;
66179;SDS011;52986;44.028;20.466;2023-11-21T09:42:10;87.00;;;42.55;;
66179;SDS011;52986;44.028;20.466;2023-11-21T09:47:08;91.15;;;47.05;;
66179;SDS011;52986;44.028;20.466;2023-11-21T09:49:35;94.75;;;48.65;;
66179;SDS011;52986;44.028;20.466;2023-11-21T09:52:02;87.57;;;44.28;;
66179;SDS011;52986;44.028;20.466;2023-11-21T09:54:29;74.63;;;39.38;;
66179;SDS011;52986;44.028;20.466;2023-11-21T09:56:56;77.25;;;39.40;;
66179;SDS011;52986;44.028;20.466;2023-11-21T09:59:23;76.55;;;40.92;;
66179;SDS011;52986;44.028;20.466;2023-11-21T10:01:49;85.28;;;43.10;;
66179;SDS011;52986;44.028;20.466;2023-11-21T10:04:15;114.53;;;58.80;;
66179;SDS011;52986;44.028;20.466;2023-11-21T10:06:42;102.95;;;54.10;;
66179;SDS011;52986;44.028;20.466;2023-11-21T10:09:11;82.55;;;41.70;;
66179;SDS011;52986;44.028;20.466;2023-11-21T10:11:42;83.07;;;43.22;;
66179;SDS011;52986;44.028;20.466;2023-11-21T10:14:11;90.88;;;45.95;;
66179;SDS011;52986;44.028;20.466;2023-11-21T10:16:39;91.35;;;44.45;;
66179;SDS011;52986;44.028;20.466;2023-11-21T10:19:05;69.55;;;36.10;;
66179;SDS011;52986;44.028;20.466;2023-11-21T10:21:34;62.00;;;33.92;;
66179;SDS011;52986;44.028;20.466;2023-11-21T10:24:00;61.88;;;33.83;;
66179;SDS011;52986;44.028;20.466;2023-11-21T10:26:26;60.70;;;32.13;;
66179;SDS011;52986;44.028;20.466;2023-11-21T10:28:59;61.63;;;33.08;;
66179;SDS011;52986;44.028;20.466;2023-11-21T10:31:31;63.40;;;32.95;;
66179;SDS011;52986;44.028;20.466;2023-11-21T10:34:15;67.38;;;34.22;;
66179;SDS011;52986;44.028;20.466;2023-11-21T10:36:44;63.78;;;35.17;;
66179;SDS011;52986;44.028;20.466;2023-11-21T10:39:20;77.93;;;42.85;;
66179;SDS011;52986;44.028;20.466;2023-11-21T10:41:48;107.05;;;54.50;;
66179;SDS011;52986;44.028;20.466;2023-11-21T10:44:15;113.88;;;61.15;;
66179;SDS011;52986;44.028;20.466;2023-11-21T10:46:46;121.45;;;62.88;;
66179;SDS011;52986;44.028;20.466;2023-11-21T10:49:16;129.75;;;67.05;;
66179;SDS011;52986;44.028;20.466;2023-11-21T10:51:45;136.15;;;72.32;;
66179;SDS011;52986;44.028;20.466;2023-11-21T10:54:16;130.85;;;69.78;;
66179;SDS011;52986;44.028;20.466;2023-11-21T10:56:42;174.18;;;91.32;;
66179;SDS011;52986;44.028;20.466;2023-11-21T10:59:12;165.10;;;86.88;;
66179;SDS011;52986;44.028;20.466;2023-11-21T11:01:41;131.43;;;71.03;;
66179;SDS011;52986;44.028;20.466;2023-11-21T11:04:09;136.88;;;73.38;;
66179;SDS011;52986;44.028;20.466;2023-11-21T11:07:24;146.50;;;76.35;;
66179;SDS011;52986;44.028;20.466;2023-11-21T11:09:30;137.02;;;70.25;;
66179;SDS011;52986;44.028;20.466;2023-11-21T11:11:58;112.68;;;63.03;;
66179;SDS011;52986;44.028;20.466;2023-11-21T11:14:26;107.38;;;59.13;;
66179;SDS011;52986;44.028;20.466;2023-11-21T11:16:53;103.70;;;56.10;;
66179;SDS011;52986;44.028;20.466;2023-11-21T11:19:20;97.82;;;54.80;;
66179;SDS011;52986;44.028;20.466;2023-11-21T11:22:24;92.07;;;50.55;;
66179;SDS011;52986;44.028;20.466;2023-11-21T11:30:08;93.20;;;51.28;;
66179;SDS011;52986;44.028;20.466;2023-11-21T11:32:46;91.63;;;50.38;;
66179;SDS011;52986;44.028;20.466;2023-11-21T11:35:33;83.10;;;45.38;;
66179;SDS011;52986;44.028;20.466;2023-11-21T11:38:03;87.78;;;47.42;;
66179;SDS011;52986;44.028;20.466;2023-11-21T11:40:38;90.13;;;50.08;;
66179;SDS011;52986;44.028;20.466;2023-11-21T11:43:09;94.45;;;51.40;;
66179;SDS011;52986;44.028;20.466;2023-11-21T11:45:35;93.88;;;49.88;;
66179;SDS011;52986;44.028;20.466;2023-11-21T11:48:01;103.63;;;55.35;;
66179;SDS011;52986;44.028;20.466;2023-11-21T11:50:28;93.05;;;49.67;;
66179;SDS011;52986;44.028;20.466;2023-11-21T11:52:54;86.07;;;46.33;;
66179;SDS011;52986;44.028;20.466;2023-11-21T11:55:22;95.13;;;51.15;;
66179;SDS011;52986;44.028;20.466;2023-11-21T11:57:52;98.13;;;53.53;;
66179;SDS011;52986;44.028;20.466;2023-11-21T12:00:22;113.97;;;63.97;;
66179;SDS011;52986;44.028;20.466;2023-11-21T12:03:02;105.03;;;57.95;;
66179;SDS011;52986;44.028;20.466;2023-11-21T12:05:29;95.13;;;51.08;;
66179;SDS011;52986;44.028;20.466;2023-11-21T12:08:06;87.75;;;46.03;;
66179;SDS011;52986;44.028;20.466;2023-11-21T12:10:33;266.65;;;126.85;;
66179;SDS011;52986;44.028;20.466;2023-11-21T12:13:00;134.25;;;70.82;;
66179;SDS011;52986;44.028;20.466;2023-11-21T12:15:27;108.47;;;57.30;;
66179;SDS011;52986;44.028;20.466;2023-11-21T12:17:56;95.32;;;51.17;;
66179;SDS011;52986;44.028;20.466;2023-11-21T12:20:23;87.13;;;46.10;;
66179;SDS011;52986;44.028;20.466;2023-11-21T12:22:50;90.13;;;47.58;;
66179;SDS011;52986;44.028;20.466;2023-11-21T12:25:18;86.35;;;45.25;;
66179;SDS011;52986;44.028;20.466;2023-11-21T12:27:45;90.72;;;48.67;;
66179;SDS011;52986;44.028;20.466;2023-11-21T12:30:11;99.72;;;53.83;;
66179;SDS011;52986;44.028;20.466;2023-11-21T12:32:42;103.15;;;54.92;;
66179;SDS011;52986;44.028;20.466;2023-11-21T12:35:12;109.55;;;59.38;;
66179;SDS011;52986;44.028;20.466;2023-11-21T12:37:38;107.40;;;58.45;;
66179;SDS011;52986;44.028;20.466;2023-11-21T12:40:05;106.72;;;57.20;;
66179;SDS011;52986;44.028;20.466;2023-11-21T12:42:32;102.07;;;54.85;;
66179;SDS011;52986;44.028;20.466;2023-11-21T12:47:34;108.68;;;57.72;;
66179;SDS011;52986;44.028;20.466;2023-11-21T12:50:01;103.13;;;54.63;;
66179;SDS011;52986;44.028;20.466;2023-11-21T12:52:27;112.32;;;60.17;;
66179;SDS011;52986;44.028;20.466;2023-11-21T12:54:53;105.80;;;58.55;;
66179;SDS011;52986;44.028;20.466;2023-11-21T12:57:19;104.78;;;57.80;;
66179;SDS011;52986;44.028;20.466;2023-11-21T12:59:45;104.28;;;58.17;;
66179;SDS011;52986;44.028;20.466;2023-11-21T13:02:12;111.65;;;59.72;;
66179;SDS011;52986;44.028;20.466;2023-11-21T13:04:39;105.53;;;57.65;;
66179;SDS011;52986;44.028;20.466;2023-11-21T13:07:04;106.80;;;58.25;;
66179;SDS011;52986;44.028;20.466;2023-11-21T13:09:39;105.63;;;58.83;;
66179;SDS011;52986;44.028;20.466;2023-11-21T13:12:04;110.97;;;59.80;;
66179;SDS011;52986;44.028;20.466;2023-11-21T13:14:33;105.85;;;60.45;;
66179;SDS011;52986;44.028;20.466;2023-11-21T13:16:59;105.80;;;58.13;;
66179;SDS011;52986;44.028;20.466;2023-11-21T13:19:24;105.32;;;56.60;;
66179;SDS011;52986;44.028;20.466;2023-11-21T13:21:52;108.13;;;58.95;;
66179;SDS011;52986;44.028;20.466;2023-11-21T13:24:17;106.93;;;56.88;;
66179;SDS011;52986;44.028;20.466;2023-11-21T13:26:43;119.90;;;66.78;;
66179;SDS011;52986;44.028;20.466;2023-11-21T13:29:11;112.13;;;61.13;;
66179;SDS011;52986;44.028;20.466;2023-11-21T13:31:38;114.30;;;61.90;;
66179;SDS011;52986;44.028;20.466;2023-11-21T13:34:04;105.97;;;59.60;;
66179;SDS011;52986;44.028;20.466;2023-11-21T13:36:33;92.25;;;49.90;;
66179;SDS011;52986;44.028;20.466;2023-11-21T13:39:00;91.78;;;51.53;;
66179;SDS011;52986;44.028;20.466;2023-11-21T13:41:32;123.00;;;66.93;;
66179;SDS011;52986;44.028;20.466;2023-11-21T13:43:58;135.98;;;75.63;;
66179;SDS011;52986;44.028;20.466;2023-11-21T13:46:37;113.18;;;62.30;;
66179;SDS011;52986;44.028;20.466;2023-11-21T13:49:02;118.55;;;65.50;;
66179;SDS011;52986;44.028;20.466;2023-11-21T13:51:28;114.95;;;62.22;;
66179;SDS011;52986;44.028;20.466;2023-11-21T13:54:04;106.47;;;56.20;;
66179;SDS011;52986;44.028;20.466;2023-11-21T13:56:34;103.72;;;56.15;;
66179;SDS011;52986;44.028;20.466;2023-11-21T13:59:00;94.93;;;52.38;;
66179;SDS011;52986;44.028;20.466;2023-11-21T14:01:34;97.63;;;53.20;;
66179;SDS011;52986;44.028;20.466;2023-11-21T14:04:32;106.55;;;57.22;;
66179;SDS011;52986;44.028;20.466;2023-11-21T14:06:57;103.60;;;58.42;;
66179;SDS011;52986;44.028;20.466;2023-11-21T14:09:25;106.10;;;57.40;;
66179;SDS011;52986;44.028;20.466;2023-11-21T14:11:57;102.45;;;56.90;;
66179;SDS011;52986;44.028;20.466;2023-11-21T14:14:25;85.70;;;47.75;;